Latest METARs, TAFs and NOTAMs for SKCG


---------------------------------------------------------------------------
	(OBSERVATIONS)
SKCG 262323Z 23005KT 5000 TSRA SCT010CB BKN070 24/23 A2983 RMK
    AD OP
SKCG 260800Z 00000KT 9999 FEW013 BKN070 25/24 A2982=
SKCG 260700Z VRB02KT 9999 SCT013 BKN070 25/24 A2984=
SKCG 260600Z 11003KT 9999 SCT013 BKN070 25/25 A2986=
---------------------------------------------------------------------------
	(TERMINAL AREA FORECAST)
SKCG 260500Z 2606/2706 VRB02KT 9999 FEW017 BKN080
    TEMPO 2609/2613 6000 VCFG SCT010
    BECMG 2614/2616 34010KT
    TEMPO 2619/2624 6000 TSRA SCT017CB
    TX32/2618Z TN25/2611Z=
---------------------------------------------------------------------------
	(NOTAMS)


SKCG A0542/17 FIRE FIGHTING AND RESCUE CHG TO CAT 8. TUE, THU,
    SAT BTN 2100-2359 WED, FRI, SUN, BTN 0000-0015, 28 MAR 21:00
    2017 UNTIL PERM. CREATED: 23 FEB 19:57 2017

SKCG A0726/17 MINIMUM OF VISIBILITY RWY 01 CHG TO: MINIMUM STANDARD
    OF TAKEOFF RWY 01: ACFT WITH ONE, TWO, THREE, OR MORE ENGINES,
    2900 M VISIBILITY MANEUVER OF TAKEOFF WITH MINIMUM UNDER
    STANDARD RWY 01: 2900 M VISIBILITY REF: AD2-SKCG 5.22. 13
    MAR 05:00 2017 UNTIL 13 JUL 05:00 2017. CREATED: 12 MAR 13:35
    2017

SKCG A1241/17 APN ARMY NTL ZONE WIP, EXER CTN. DLY BTN 1100-2300,
    03 MAY 22:20 2017 UNTIL 30 JUN 23:00 2017. CREATED: 03 MAY
    22:24 2017

SKCG A1482/17 IAP RNAV GNSS RWY 19, NO AVBL. H24, 28 MAY 05:00
    2017 UNTIL 31 JUL 05:00 2017. CREATED: 26 MAY 17:26 2017

SKCG A1484/17 TEMPO NXT SID CHG PDG TO 7.5? TIL 400FT AFTER CONTINUE
    WITH PDG PUBLISHED AD2-SKCG-SID 1 IRAX1A RWY 01 AD2-SKCG-SID
    2 KOPG1A RWY 01 AD2-SKCG-SID 3 BAQ2A, CTG1D RWY 01 AD2-SKCG-SID
    4 VARO1A RWY 01 AD2-SKCG-SID 5 UGSO1C RWY 01 AD2-SKCG-SID
    6 BUTA1B RWY 01 GR(?) KTS 90 120 150 180 220 250 PDG 7.5?
    690 920 1140 1370 1680 1900. 28 MAY 05:00 2017 UNTIL 31 JUL
    05:00 2017. CREATED: 26 MAY 18:07 2017

SKCG A1485/17 OBST INSTL NXT COORD: P1: 102720.51N0753041.08W
    HGT 20 M P2: 102721.23N0753040.95W HGT 20 M P3: 102720.24N0753041.36W
    HGT 20 M P4: 102720.58N0753041.67W HGT 20 M. 26 MAY 05:00
    2017 UNTIL 30 JUN 05:00 2017. CREATED: 26 MAY 18:47 2017

SKCG A1508/17 IAP VOR RWY 01,CIRCULAR RWY 19, PPR ATS IAP RNAV
    GNSS RWY 01,CIRCULAR RWY 19, PPR ATS. HN, 30 MAY 00:04 2017
    UNTIL 31 JUL 05:00 2017. CREATED: 30 MAY 00:07 2017

SKCG A1632/17 FREQ 118.3 MHZ RAFAEL NUNEZ TWR U/S, OPR FREQ 120.3
    MHZ. H24, 09 JUN 15:00 2017 UNTIL 08 SEP 23:59 2017 ESTIMATED.
    CREATED: 09 JUN 15:17 2017

SKCG A1685/17 OBST INSTL NXT COORD: P1:102720,51N0753041,08W
    HGT 20M P2:102721,23N0753040,95W HGT 20M P3:102722,05N0753039,43W
    HGT 20M P4:102722,41N0753039,75W HGT 20M EXER CTN. 14 JUN
    17:28 2017 UNTIL 31 JUL 05:00 2017. CREATED: 14 JUN 17:33
    2017

SKCG A1774/17 RWY 01/19 CLSD. DLY BTN 0615-1030, 25 AUG 06:15
    2017 UNTIL 25 FEB 10:30 2018. CREATED: 24 JUN 16:50 2017

SKCG A1775/17 RWY 01/19 AVBL ONLY TKOF. DLY BTN 1030-1115, 25
    AUG 10:30 2017 UNTIL 25 FEB 11:15 2018. CREATED: 24 JUN 16:54
    2017

SKCG A2997/09 FIRE FIGHTING AND RESCUE DOWNGRADED TO CAT 7 09
    DEC 20:30 UNTIL 10 DEC 23:00 ESTIMATED

---------------------------------------------------------------------------